Time;durP1;ratioP1;P1;durP2;ratioP2;P2;SDS_P1;SDS_P2;PMS_P1;PMS_P2;Temp;Humidity;BMP_temperature;BMP_pressure;BME280_temperature;BME280_humidity;BME280_pressure;Samples;Min_cycle;Max_cycle;Signal;HPM_P1;HPM_P2
2021/06/03 00:02:04;;;;;;;4.77;4.37;;;16.90;98.70;;;;;;5072211;28;20176;-73
2021/06/03 00:04:30;;;;;;;5.50;4.53;;;16.90;98.80;;;;;;5054941;28;20221;-74
2021/06/03 00:06:56;;;;;;;5.57;5.17;;;16.90;98.90;;;;;;5072364;28;20408;-74
2021/06/03 00:09:21;;;;;;;4.97;4.57;;;16.80;98.80;;;;;;5072305;28;20287;-74
2021/06/03 00:11:47;;;;;;;5.30;4.80;;;16.80;99.00;;;;;;5072402;28;20164;-74
2021/06/03 00:14:12;;;;;;;6.27;5.37;;;16.80;99.10;;;;;;5072605;28;20716;-74
2021/06/03 00:16:38;;;;;;;5.30;4.80;;;16.70;99.20;;;;;;5072137;28;20173;-74
2021/06/03 00:19:07;;;;;;;4.93;4.50;;;16.70;99.40;;;;;;5072197;28;20195;-74
2021/06/03 00:21:33;;;;;;;5.50;4.83;;;16.70;99.40;;;;;;5072384;28;20154;-74
2021/06/03 00:23:59;;;;;;;6.20;5.10;;;16.60;99.40;;;;;;5072568;28;20482;-74
2021/06/03 00:26:25;;;;;;;5.10;4.70;;;16.70;99.40;;;;;;5072516;28;20897;-74
2021/06/03 00:28:51;;;;;;;5.77;5.37;;;16.60;99.50;;;;;;5072892;28;20628;-75
2021/06/03 00:31:16;;;;;;;4.77;4.37;;;16.60;99.60;;;;;;5073358;28;20428;-74
2021/06/03 00:33:42;;;;;;;5.50;5.00;;;16.50;99.70;;;;;;5072748;28;20162;-75
2021/06/03 00:36:09;;;;;;;7.63;6.33;;;16.50;99.80;;;;;;5072295;28;20166;-74
2021/06/03 00:38:36;;;;;;;7.63;4.60;;;16.40;99.90;;;;;;5072026;28;20164;-75
2021/06/03 00:41:03;;;;;;;5.60;5.10;;;16.40;99.90;;;;;;5071825;28;20451;-75
2021/06/03 00:43:29;;;;;;;6.20;5.60;;;16.40;99.90;;;;;;5071762;28;20397;-75
2021/06/03 00:45:55;;;;;;;6.67;5.93;;;16.30;99.90;;;;;;5071929;28;20404;-75
2021/06/03 00:48:20;;;;;;;7.50;5.50;;;16.30;99.90;;;;;;5071672;28;20408;-74
2021/06/03 00:50:49;;;;;;;7.70;5.27;;;16.20;99.90;;;;;;5072006;28;20277;-74
2021/06/03 00:53:15;;;;;;;5.77;5.20;;;16.20;99.90;;;;;;5072021;28;20265;-74
2021/06/03 00:55:44;;;;;;;6.23;5.63;;;16.20;99.90;;;;;;5069018;28;20561;-75
2021/06/03 00:58:10;;;;;;;4.93;4.43;;;16.10;99.90;;;;;;5060095;28;20911;-75
2021/06/03 01:00:35;;;;;;;8.50;6.03;;;16.10;99.90;;;;;;5051274;28;20460;-74
2021/06/03 01:03:01;;;;;;;7.33;5.60;;;16.10;99.90;;;;;;5071926;28;20200;-75
2021/06/03 01:05:34;;;;;;;6.00;5.20;;;16.20;99.90;;;;;;5071767;28;20252;-74
2021/06/03 01:08:04;;;;;;;5.90;5.30;;;16.10;99.90;;;;;;5071285;28;20434;-75
2021/06/03 01:10:34;;;;;;;7.03;4.80;;;16.10;99.90;;;;;;5071529;28;20566;-74
2021/06/03 01:13:15;;;;;;;5.33;4.83;;;16.10;99.90;;;;;;5071363;28;20463;-74
2021/06/03 01:15:45;;;;;;;6.07;5.00;;;16.10;99.90;;;;;;5071624;28;20428;-75
2021/06/03 01:18:12;;;;;;;5.97;5.37;;;16.10;99.90;;;;;;5071249;28;20415;-74
2021/06/03 01:20:38;;;;;;;6.50;5.10;;;16.00;99.90;;;;;;5071524;28;20554;-74
2021/06/03 01:23:13;;;;;;;8.73;5.37;;;16.00;99.90;;;;;;5071425;28;20754;-74
2021/06/03 01:25:40;;;;;;;5.13;4.63;;;16.00;99.90;;;;;;5067890;28;20428;-74
2021/06/03 01:28:06;;;;;;;5.63;4.97;;;15.90;99.90;;;;;;5053447;28;20434;-74
2021/06/03 01:30:39;;;;;;;7.87;5.80;;;15.90;99.90;;;;;;5071454;28;20515;-74
2021/06/03 01:33:09;;;;;;;5.70;5.20;;;15.80;99.90;;;;;;5053672;28;20439;-74
2021/06/03 01:35:38;;;;;;;6.53;5.83;;;15.90;99.90;;;;;;5072097;28;20943;-74
2021/06/03 01:38:07;;;;;;;6.40;5.80;;;15.80;99.90;;;;;;5053742;28;20495;-74
2021/06/03 01:40:34;;;;;;;5.47;4.97;;;15.80;99.90;;;;;;5070542;28;20467;-74
2021/06/03 01:43:00;;;;;;;8.00;6.07;;;15.80;99.90;;;;;;5071350;28;20420;-74
2021/06/03 01:45:28;;;;;;;5.20;4.70;;;15.80;99.90;;;;;;5071486;28;20443;-74
2021/06/03 01:47:53;;;;;;;6.30;5.80;;;15.70;99.90;;;;;;5053228;28;20452;-74
2021/06/03 01:50:19;;;;;;;7.07;5.13;;;15.70;99.90;;;;;;5071391;28;20471;-74
2021/06/03 01:52:45;;;;;;;5.30;4.80;;;15.70;99.90;;;;;;5071243;28;20413;-75
2021/06/03 01:55:12;;;;;;;5.73;4.93;;;15.60;99.90;;;;;;5070511;28;20171;-76
2021/06/03 01:57:39;;;;;;;5.67;5.03;;;15.60;99.90;;;;;;5068387;28;20248;-76
2021/06/03 02:00:07;;;;;;;8.27;6.03;;;15.60;99.90;;;;;;5074645;28;20460;-74
2021/06/03 02:02:33;;;;;;;6.50;5.90;;;15.60;99.90;;;;;;5074877;28;20404;-74
2021/06/03 02:04:58;;;;;;;6.60;5.57;;;15.50;99.90;;;;;;5074558;28;20491;-74
2021/06/03 02:07:24;;;;;;;6.47;5.83;;;15.50;99.90;;;;;;5074589;28;20173;-74
2021/06/03 02:09:49;;;;;;;8.77;6.40;;;15.50;99.90;;;;;;5074837;28;20198;-74
2021/06/03 02:12:16;;;;;;;10.60;6.53;;;15.40;99.90;;;;;;5074180;28;20261;-74
2021/06/03 02:14:42;;;;;;;10.67;5.73;;;15.40;99.90;;;;;;5074513;28;20265;-75
2021/06/03 02:17:35;;;;;;;5.70;5.20;;;15.40;99.90;;;;;;5074400;28;20404;-75
2021/06/03 02:20:09;;;;;;;6.67;5.97;;;15.30;99.90;;;;;;5074327;28;20485;-76
2021/06/03 02:22:37;;;;;;;7.30;5.30;;;15.40;99.90;;;;;;5074423;28;21096;-73
2021/06/03 02:25:05;;;;;;;7.73;5.90;;;15.20;99.90;;;;;;5074315;28;20411;-74
2021/06/03 02:27:31;;;;;;;5.83;5.33;;;15.20;99.90;;;;;;5074150;28;20404;-74
2021/06/03 02:29:56;;;;;;;6.93;6.30;;;15.30;99.90;;;;;;5074250;28;20939;-73
2021/06/03 02:32:22;;;;;;;5.93;5.40;;;15.20;99.90;;;;;;5074100;28;20413;-73
2021/06/03 02:34:49;;;;;;;6.60;5.57;;;15.20;99.90;;;;;;5074570;28;20216;-75
2021/06/03 02:37:16;;;;;;;8.23;5.60;;;15.20;99.90;;;;;;5074191;28;20175;-73
2021/06/03 02:39:45;;;;;;;7.50;6.57;;;15.20;99.90;;;;;;5073924;28;20498;-74
2021/06/03 02:42:11;;;;;;;5.17;4.77;;;15.20;99.90;;;;;;5073919;28;20971;-74
2021/06/03 02:44:38;;;;;;;5.93;5.23;;;15.20;99.90;;;;;;5074041;28;20477;-74
2021/06/03 02:47:05;;;;;;;6.00;5.50;;;15.20;99.90;;;;;;5074051;28;20404;-74
2021/06/03 02:49:31;;;;;;;5.70;5.20;;;15.20;99.90;;;;;;5074016;28;20435;-74
2021/06/03 02:52:01;;;;;;;7.43;5.60;;;15.10;99.90;;;;;;5073859;28;20416;-74
2021/06/03 02:54:27;;;;;;;11.93;6.63;;;15.10;99.90;;;;;;5074241;28;20200;-74
2021/06/03 02:56:52;;;;;;;8.50;5.60;;;15.10;99.90;;;;;;5074039;28;20421;-75
2021/06/03 02:59:18;;;;;;;6.20;5.60;;;15.10;99.90;;;;;;5073779;28;20463;-74
2021/06/03 03:01:43;;;;;;;6.43;5.10;;;15.10;99.90;;;;;;5074021;28;20189;-74
2021/06/03 03:04:09;;;;;;;9.10;5.87;;;15.00;99.90;;;;;;5074457;28;20181;-74
2021/06/03 03:06:34;;;;;;;8.20;7.47;;;15.00;99.90;;;;;;5074043;28;20249;-74
2021/06/03 03:09:00;;;;;;;6.33;5.40;;;15.00;99.90;;;;;;5073899;28;20170;-73
2021/06/03 03:11:25;;;;;;;6.83;6.20;;;15.00;99.90;;;;;;5073504;28;20194;-74
2021/06/03 03:13:51;;;;;;;6.77;6.10;;;15.00;99.90;;;;;;5073864;28;20185;-73
2021/06/03 03:16:16;;;;;;;6.93;5.40;;;15.00;99.90;;;;;;5073402;28;20166;-74
2021/06/03 03:18:42;;;;;;;7.27;5.33;;;15.00;99.90;;;;;;5073557;28;20541;-74
2021/06/03 03:21:07;;;;;;;7.27;5.70;;;15.00;99.90;;;;;;5073235;28;20198;-73
2021/06/03 03:23:33;;;;;;;6.70;6.10;;;15.00;99.90;;;;;;5073260;28;20208;-74
2021/06/03 03:25:59;;;;;;;5.90;5.30;;;15.10;99.90;;;;;;5073119;28;20162;-74
2021/06/03 03:28:24;;;;;;;6.63;5.97;;;15.10;99.90;;;;;;5073037;28;20454;-75
2021/06/03 03:30:50;;;;;;;7.73;5.33;;;15.10;99.90;;;;;;5072923;28;20191;-74
2021/06/03 03:33:16;;;;;;;12.93;6.50;;;15.10;99.90;;;;;;5073066;28;20583;-74
2021/06/03 03:35:46;;;;;;;5.87;5.37;;;15.10;99.90;;;;;;5055375;28;20641;-74
2021/06/03 03:38:11;;;;;;;6.23;5.63;;;15.10;99.90;;;;;;5073016;28;20428;-74
2021/06/03 03:40:37;;;;;;;9.87;6.30;;;15.10;99.90;;;;;;5073246;28;20484;-74
2021/06/03 03:43:03;;;;;;;6.50;5.90;;;15.10;99.90;;;;;;5073210;28;20396;-74
2021/06/03 03:45:28;;;;;;;7.67;5.90;;;15.10;99.90;;;;;;5073645;28;20649;-75
2021/06/03 03:47:54;;;;;;;7.93;5.97;;;15.10;99.90;;;;;;5073162;28;20169;-75
2021/06/03 03:50:21;;;;;;;7.27;5.00;;;15.10;99.90;;;;;;5072647;28;20197;-75
2021/06/03 03:52:47;;;;;;;5.83;5.27;;;15.10;99.90;;;;;;5072614;28;20450;-75
2021/06/03 03:55:14;;;;;;;5.60;5.10;;;15.10;99.90;;;;;;5072566;28;20412;-75
2021/06/03 03:57:40;;;;;;;6.37;5.77;;;15.20;99.90;;;;;;5065831;28;20469;-74
2021/06/03 04:00:08;;;;;;;5.70;5.20;;;15.20;99.90;;;;;;5052414;28;20479;-75
2021/06/03 04:02:34;;;;;;;6.67;5.63;;;15.20;99.90;;;;;;5052489;28;20402;-75
2021/06/03 04:04:59;;;;;;;5.77;5.20;;;15.30;99.90;;;;;;5052308;28;20400;-74
2021/06/03 04:07:26;;;;;;;6.77;5.70;;;15.30;99.90;;;;;;5052384;28;20168;-74
2021/06/03 04:09:51;;;;;;;7.93;6.10;;;15.40;99.90;;;;;;5052619;28;20183;-75
2021/06/03 04:12:17;;;;;;;6.37;5.80;;;15.40;99.90;;;;;;5052631;28;20897;-75
2021/06/03 04:14:43;;;;;;;6.90;5.50;;;15.50;99.90;;;;;;5052480;28;20171;-75
2021/06/03 04:17:08;;;;;;;6.47;5.80;;;15.60;99.90;;;;;;5052155;28;20406;-74
2021/06/03 04:19:34;;;;;;;5.90;5.30;;;16.10;99.90;;;;;;5051444;28;20666;-75
2021/06/03 04:22:01;;;;;;;7.33;5.63;;;17.00;99.90;;;;;;5052238;28;20189;-75
2021/06/03 04:24:27;;;;;;;6.57;4.67;;;17.70;98.80;;;;;;5052148;28;20171;-75
2021/06/03 04:26:52;;;;;;;6.80;6.00;;;18.10;98.20;;;;;;5051951;28;20396;-75
2021/06/03 04:29:18;;;;;;;6.17;5.00;;;18.50;97.70;;;;;;5051954;28;20194;-75
2021/06/03 04:31:43;;;;;;;6.00;5.50;;;18.90;96.60;;;;;;5052014;28;20798;-75
2021/06/03 04:34:09;;;;;;;5.73;5.23;;;18.90;96.30;;;;;;5051947;28;20208;-75
2021/06/03 04:36:34;;;;;;;5.83;5.23;;;19.20;96.10;;;;;;5051769;28;20195;-75
2021/06/03 04:39:00;;;;;;;5.80;4.97;;;19.00;95.80;;;;;;5051787;28;20208;-75
2021/06/03 04:41:25;;;;;;;6.90;6.20;;;19.00;95.10;;;;;;5052196;28;20161;-74
2021/06/03 04:43:51;;;;;;;7.20;6.33;;;18.60;95.50;;;;;;5051917;28;20167;-73
2021/06/03 04:46:16;;;;;;;5.50;5.10;;;18.30;96.20;;;;;;5051839;28;20534;-74
2021/06/03 04:48:42;;;;;;;7.77;5.80;;;18.10;96.60;;;;;;5051716;28;20307;-74
2021/06/03 04:51:08;;;;;;;5.87;5.33;;;17.90;96.90;;;;;;5051522;28;20197;-74
2021/06/03 04:53:34;;;;;;;7.27;5.87;;;18.00;96.70;;;;;;5051683;28;20175;-74
2021/06/03 04:56:00;;;;;;;6.43;5.53;;;18.40;96.20;;;;;;5051649;28;20405;-74
2021/06/03 04:58:27;;;;;;;5.53;4.60;;;18.90;95.90;;;;;;5052932;28;20956;-75
2021/06/03 05:00:53;;;;;;;7.93;5.20;;;19.50;95.00;;;;;;5051444;28;20549;-75
2021/06/03 05:03:19;;;;;;;12.23;5.63;;;19.70;94.70;;;;;;5050226;28;20448;-75
2021/06/03 05:05:45;;;;;;;5.53;5.03;;;19.60;94.30;;;;;;5051650;28;20411;-75
2021/06/03 05:08:10;;;;;;;5.90;5.40;;;20.10;93.60;;;;;;5033644;28;20174;-74
2021/06/03 05:10:36;;;;;;;5.10;4.70;;;20.50;93.20;;;;;;5051471;28;20536;-75
2021/06/03 05:13:02;;;;;;;6.30;4.80;;;20.70;92.70;;;;;;5051334;28;20187;-75
2021/06/03 05:15:28;;;;;;;8.83;5.23;;;20.70;92.90;;;;;;5051596;28;20167;-75
2021/06/03 05:17:54;;;;;;;10.03;5.13;;;20.50;92.60;;;;;;5050131;28;20430;-76
2021/06/03 05:20:22;;;;;;;5.27;4.77;;;20.70;92.60;;;;;;5051958;28;20581;-74
2021/06/03 05:22:50;;;;;;;7.40;5.57;;;21.10;92.30;;;;;;5051654;28;20398;-75
2021/06/03 05:25:17;;;;;;;5.73;5.00;;;21.40;91.50;;;;;;5051533;28;20413;-75
2021/06/03 05:27:43;;;;;;;6.57;5.60;;;21.60;91.20;;;;;;5051605;28;20405;-75
2021/06/03 05:30:11;;;;;;;6.83;4.87;;;20.90;91.40;;;;;;5051995;28;20431;-75
2021/06/03 05:32:37;;;;;;;7.37;5.50;;;21.30;91.40;;;;;;5055330;28;20432;-75
2021/06/03 05:35:06;;;;;;;6.40;5.60;;;21.40;91.00;;;;;;5055463;28;20411;-75
2021/06/03 05:37:31;;;;;;;6.30;4.60;;;21.70;90.70;;;;;;5055224;28;20397;-75
2021/06/03 05:39:57;;;;;;;9.70;5.00;;;21.50;90.50;;;;;;5055358;28;20465;-75
2021/06/03 05:42:22;;;;;;;7.63;6.40;;;21.60;90.80;;;;;;5055569;28;20162;-75
2021/06/03 05:44:48;;;;;;;5.73;5.23;;;21.40;90.50;;;;;;5037585;28;20215;-77
2021/06/03 05:47:14;;;;;;;4.70;4.30;;;21.30;90.80;;;;;;5055262;28;20166;-74
2021/06/03 05:49:39;;;;;;;5.27;4.77;;;21.40;90.50;;;;;;5055192;28;20208;-74
2021/06/03 05:52:05;;;;;;;5.83;4.63;;;21.30;90.90;;;;;;5055083;28;20232;-74
2021/06/03 05:54:32;;;;;;;5.07;4.30;;;21.80;90.10;;;;;;5055313;28;20222;-75
2021/06/03 05:56:57;;;;;;;6.07;4.80;;;22.00;90.30;;;;;;5055785;28;20198;-75
2021/06/03 05:59:24;;;;;;;7.70;4.90;;;22.10;89.40;;;;;;5072803;28;20489;-75
2021/06/03 06:01:50;;;;;;;7.73;5.60;;;22.20;90.00;;;;;;5073791;28;20186;-75
2021/06/03 06:06:07;;;;;;;5.77;5.00;;;22.90;87.70;;;;;;5074929;28;20397;-75
2021/06/03 06:07:04;;;;;;;6.47;5.03;;;22.80;88.30;;;;;;5074350;28;20408;-75
2021/06/03 06:09:30;;;;;;;5.97;4.57;;;22.70;87.40;;;;;;5074521;28;20429;-75
2021/06/03 06:11:55;;;;;;;5.40;4.13;;;23.30;86.20;;;;;;5074416;28;20647;-76
2021/06/03 06:14:21;;;;;;;5.27;4.77;;;23.30;87.20;;;;;;5074268;28;20568;-76
2021/06/03 06:16:47;;;;;;;6.57;5.07;;;24.00;84.10;;;;;;5074282;28;20165;-74
2021/06/03 06:19:12;;;;;;;8.50;4.83;;;23.60;84.30;;;;;;5074281;28;20263;-74
2021/06/03 06:21:38;;;;;;;4.33;3.80;;;24.00;84.60;;;;;;5074453;28;20186;-74
2021/06/03 06:24:04;;;;;;;6.47;4.90;;;23.90;84.30;;;;;;5074495;28;20170;-74
2021/06/03 06:26:30;;;;;;;5.10;4.60;;;24.40;81.10;;;;;;5074229;28;20584;-75
2021/06/03 06:28:56;;;;;;;4.47;4.07;;;24.30;80.90;;;;;;5074140;28;20412;-74
2021/06/03 06:31:23;;;;;;;5.53;5.03;;;24.60;80.40;;;;;;5074314;28;20201;-74
2021/06/03 06:33:49;;;;;;;8.07;4.07;;;24.50;79.20;;;;;;5074296;28;20400;-74
2021/06/03 06:36:16;;;;;;;6.53;4.60;;;24.60;78.90;;;;;;5074216;28;20427;-74
2021/06/03 06:38:42;;;;;;;6.10;3.80;;;25.00;79.40;;;;;;5074639;28;20486;-74
2021/06/03 06:41:09;;;;;;;5.87;4.60;;;25.40;78.30;;;;;;5073629;28;20460;-75
2021/06/03 06:43:36;;;;;;;5.97;4.10;;;25.30;77.40;;;;;;5073918;28;20930;-74
2021/06/03 06:46:03;;;;;;;6.43;4.10;;;25.90;76.00;;;;;;5074089;28;20400;-75
2021/06/03 06:48:29;;;;;;;5.27;4.27;;;25.40;77.20;;;;;;5074075;28;20412;-75
2021/06/03 06:50:55;;;;;;;8.10;4.40;;;26.00;77.60;;;;;;5073717;28;20424;-73
2021/06/03 06:53:21;;;;;;;5.73;4.63;;;26.10;74.90;;;;;;5074052;28;20170;-75
2021/06/03 06:55:47;;;;;;;7.80;4.60;;;26.30;74.30;;;;;;5073805;28;20173;-76
2021/06/03 06:58:13;;;;;;;5.70;4.10;;;26.60;73.50;;;;;;5073720;28;20409;-74
2021/06/03 07:00:40;;;;;;;5.43;4.93;;;26.60;73.10;;;;;;5073416;28;20659;-74
2021/06/03 07:03:08;;;;;;;4.70;4.30;;;26.70;72.30;;;;;;5073741;28;20304;-75
2021/06/03 07:05:34;;;;;;;4.93;4.27;;;27.30;71.10;;;;;;5073635;28;20401;-75
2021/06/03 07:08:00;;;;;;;4.83;3.90;;;27.30;71.00;;;;;;5073479;28;20986;-74
2021/06/03 07:10:25;;;;;;;4.90;4.50;;;27.50;69.30;;;;;;5073441;28;20523;-75
2021/06/03 07:12:52;;;;;;;6.90;4.30;;;26.80;69.60;;;;;;5073401;28;20189;-74
2021/06/03 07:15:18;;;;;;;5.77;4.10;;;27.40;68.90;;;;;;5073459;28;20541;-73
2021/06/03 07:17:44;;;;;;;5.10;4.50;;;27.40;68.90;;;;;;5073371;28;20541;-74
2021/06/03 07:20:12;;;;;;;5.33;3.90;;;27.60;67.70;;;;;;5073208;28;20843;-74
2021/06/03 07:22:40;;;;;;;6.93;4.40;;;27.70;66.70;;;;;;5073014;28;20192;-75
2021/06/03 07:25:07;;;;;;;6.13;4.50;;;27.30;66.50;;;;;;5073153;28;20413;-75
2021/06/03 07:27:33;;;;;;;3.93;3.40;;;27.50;66.20;;;;;;5055784;28;20466;-75
2021/06/03 07:30:00;;;;;;;6.40;4.27;;;27.40;65.90;;;;;;5054988;28;20493;-75
2021/06/03 07:32:29;;;;;;;5.13;4.27;;;27.10;65.50;;;;;;5073068;28;20407;-75
2021/06/03 07:34:54;;;;;;;5.60;4.93;;;27.20;66.80;;;;;;5063460;28;20424;-75
2021/06/03 07:37:20;;;;;;;5.50;4.13;;;27.20;65.60;;;;;;5056167;28;20768;-75
2021/06/03 07:39:46;;;;;;;4.37;3.97;;;27.40;64.60;;;;;;5052649;28;20696;-74
2021/06/03 07:42:12;;;;;;;9.70;5.43;;;26.60;66.60;;;;;;5051499;28;20174;-75
2021/06/03 07:44:39;;;;;;;4.60;3.83;;;26.40;68.30;;;;;;5054495;28;20167;-77
2021/06/03 07:47:05;;;;;;;6.90;4.27;;;26.50;67.60;;;;;;5067317;28;20448;-78
2021/06/03 07:49:31;;;;;;;4.93;3.57;;;26.20;67.40;;;;;;5072617;28;20441;-76
2021/06/03 07:51:57;;;;;;;6.10;3.50;;;27.00;65.90;;;;;;5073083;28;20495;-76
2021/06/03 07:54:23;;;;;;;7.70;4.40;;;27.50;63.80;;;;;;5071910;28;20740;-76
2021/06/03 07:56:49;;;;;;;4.93;4.43;;;27.60;62.70;;;;;;5072801;28;20481;-77
2021/06/03 07:59:15;;;;;;;5.93;3.40;;;27.80;63.70;;;;;;5072599;28;20420;-76
2021/06/03 08:01:41;;;;;;;4.03;3.70;;;27.50;62.50;;;;;;5073021;28;20424;-77
2021/06/03 08:04:07;;;;;;;7.33;3.90;;;27.50;59.70;;;;;;5072789;28;20404;-76
2021/06/03 08:06:33;;;;;;;6.23;3.90;;;27.80;61.00;;;;;;5072541;28;20408;-76
2021/06/03 08:08:59;;;;;;;5.33;3.83;;;28.00;61.60;;;;;;5071177;28;20174;-78
2021/06/03 08:11:25;;;;;;;5.87;4.10;;;28.30;61.00;;;;;;5072492;28;20409;-77
2021/06/03 08:13:50;;;;;;;4.27;3.97;;;28.00;61.80;;;;;;5072289;28;20473;-76
2021/06/03 08:16:16;;;;;;;4.50;3.60;;;28.90;59.80;;;;;;5072120;28;20177;-75
2021/06/03 08:18:41;;;;;;;4.37;3.97;;;29.10;58.80;;;;;;5072181;28;20170;-76
2021/06/03 08:21:08;;;;;;;4.50;4.10;;;29.30;57.90;;;;;;5071954;28;20281;-76
2021/06/03 08:23:34;;;;;;;4.90;3.33;;;28.70;57.70;;;;;;5069041;28;20264;-77
2021/06/03 08:26:00;;;;;;;3.80;3.33;;;29.20;57.20;;;;;;5066716;28;20444;-76
2021/06/03 08:28:27;;;;;;;5.47;3.57;;;28.60;57.60;;;;;;5072048;28;20164;-75
2021/06/03 08:30:56;;;;;;;5.87;3.40;;;28.00;60.00;;;;;;5060400;28;20435;-76
2021/06/03 08:33:21;;;;;;;6.63;3.60;;;28.40;58.00;;;;;;5072290;28;20404;-77
2021/06/03 08:35:47;;;;;;;11.83;4.03;;;28.40;56.60;;;;;;5072476;28;20428;-76
2021/06/03 08:38:13;;;;;;;3.93;3.50;;;28.20;56.70;;;;;;5054134;28;20177;-77
2021/06/03 08:40:45;;;;;;;3.73;3.43;;;28.60;57.70;;;;;;5072047;28;20241;-77
2021/06/03 08:43:11;;;;;;;3.53;3.03;;;28.80;55.90;;;;;;5055811;28;20171;-76
2021/06/03 08:45:40;;;;;;;3.80;3.10;;;27.90;55.90;;;;;;5065042;28;20458;-76
2021/06/03 08:48:07;;;;;;;3.83;3.30;;;28.20;56.00;;;;;;5071868;28;20257;-77
2021/06/03 08:50:37;;;;;;;3.90;3.50;;;28.40;56.30;;;;;;5071825;28;20444;-76
2021/06/03 08:53:04;;;;;;;4.90;3.40;;;27.70;56.00;;;;;;5072514;28;20436;-77
2021/06/03 08:58:18;;;;;;;4.50;3.30;;;28.00;55.40;;;;;;5052127;28;20432;-77
2021/06/03 09:00:45;;;;;;;9.20;3.30;;;28.20;55.30;;;;;;5070148;28;20456;-77
2021/06/03 09:03:11;;;;;;;6.43;3.53;;;28.00;55.00;;;;;;5071879;28;20465;-77
2021/06/03 09:05:38;;;;;;;3.40;3.10;;;27.90;55.30;;;;;;5075162;28;20400;-77
2021/06/03 09:08:26;;;;;;;4.03;3.63;;;27.60;55.40;;;;;;5069781;28;20519;-76
2021/06/03 09:11:01;;;;;;;3.53;3.23;;;27.70;56.80;;;;;;5076165;28;20511;-78
2021/06/03 09:13:30;;;;;;;3.90;3.10;;;28.10;55.30;;;;;;5075956;28;20431;-78
2021/06/03 09:16:13;;;;;;;4.33;3.03;;;28.30;55.30;;;;;;5076074;28;20503;-78
2021/06/03 09:18:42;;;;;;;3.83;2.87;;;28.10;54.30;;;;;;5076248;28;20914;-77
2021/06/03 09:21:19;;;;;;;4.53;2.90;;;28.20;53.60;;;;;;5075856;28;20824;-76
2021/06/03 09:23:47;;;;;;;3.20;2.90;;;28.30;53.00;;;;;;5075850;28;20396;-77
2021/06/03 09:26:16;;;;;;;6.50;3.40;;;28.60;52.60;;;;;;5075546;28;20404;-77
2021/06/03 09:28:44;;;;;;;3.97;3.67;;;27.80;54.60;;;;;;5075371;28;20400;-77
2021/06/03 09:31:30;;;;;;;3.53;2.97;;;28.00;54.70;;;;;;5057550;28;20485;-76
2021/06/03 09:33:58;;;;;;;8.40;3.27;;;28.40;53.50;;;;;;5075717;28;20400;-77
2021/06/03 09:36:50;;;;;;;4.43;2.90;;;28.80;53.20;;;;;;5075248;28;20506;-76
2021/06/03 09:39:37;;;;;;;4.63;2.97;;;28.90;53.20;;;;;;5075553;28;20820;-77
2021/06/03 09:42:07;;;;;;;4.17;3.27;;;29.40;51.90;;;;;;5068142;28;20409;-75
2021/06/03 09:44:38;;;;;;;4.47;3.60;;;29.20;52.40;;;;;;5055017;28;20412;-75
2021/06/03 09:47:10;;;;;;;2.90;2.60;;;28.90;51.30;;;;;;5055064;28;20907;-76
2021/06/03 09:49:46;;;;;;;3.90;3.30;;;28.50;52.20;;;;;;5055260;28;20516;-77
2021/06/03 09:52:16;;;;;;;5.30;2.90;;;28.70;52.30;;;;;;5055294;28;20415;-76
2021/06/03 09:54:49;;;;;;;3.23;2.90;;;28.90;52.70;;;;;;5055262;28;20825;-76
2021/06/03 09:57:14;;;;;;;4.90;2.80;;;29.30;51.60;;;;;;5054818;28;20405;-76
2021/06/03 09:59:44;;;;;;;3.07;2.80;;;29.40;51.50;;;;;;5072635;28;20458;-75
2021/06/03 10:02:19;;;;;;;8.60;2.90;;;28.50;52.10;;;;;;5074777;28;20618;-76
2021/06/03 10:04:47;;;;;;;3.97;3.30;;;28.20;52.10;;;;;;5074285;28;20431;-75
2021/06/03 10:07:24;;;;;;;3.80;2.70;;;27.80;52.60;;;;;;5073444;28;20407;-76
2021/06/03 10:10:04;;;;;;;3.20;3.00;;;27.70;52.10;;;;;;5074694;28;20451;-76
2021/06/03 10:12:37;;;;;;;3.90;2.83;;;27.60;53.40;;;;;;5074360;28;20447;-76
2021/06/03 10:15:10;;;;;;;3.10;2.90;;;27.40;53.10;;;;;;5074600;28;20396;-76
2021/06/03 10:18:02;;;;;;;3.27;2.97;;;27.00;53.00;;;;;;5073567;28;20423;-76
2021/06/03 10:20:46;;;;;;;3.63;2.80;;;26.70;53.40;;;;;;5056790;28;20496;-77
2021/06/03 10:23:20;;;;;;;3.63;2.87;;;26.80;54.00;;;;;;5074769;28;20478;-76
2021/06/03 10:25:48;;;;;;;3.40;3.07;;;26.40;54.40;;;;;;5074856;28;20392;-76
2021/06/03 10:28:16;;;;;;;4.90;3.80;;;26.40;54.30;;;;;;5074749;28;20398;-76
2021/06/03 10:30:52;;;;;;;7.43;3.10;;;26.60;54.10;;;;;;5074457;28;20429;-76
2021/06/03 10:33:22;;;;;;;3.00;2.60;;;26.70;53.10;;;;;;5074504;28;20479;-76
2021/06/03 10:35:56;;;;;;;2.90;2.67;;;26.40;53.20;;;;;;5074318;28;20412;-76
2021/06/03 10:38:22;;;;;;;3.10;2.80;;;26.60;53.00;;;;;;5074318;28;20404;-75
2021/06/03 10:40:50;;;;;;;3.80;2.80;;;26.80;54.20;;;;;;5056032;28;20482;-76
2021/06/03 10:43:16;;;;;;;4.80;2.93;;;26.30;53.40;;;;;;5065735;28;20447;-76
2021/06/03 10:45:43;;;;;;;3.40;2.80;;;26.00;53.80;;;;;;5054415;28;20439;-76
2021/06/03 10:48:09;;;;;;;3.47;3.17;;;26.00;53.90;;;;;;5053902;28;20159;-76
2021/06/03 10:50:45;;;;;;;4.10;3.23;;;26.00;53.80;;;;;;5053785;28;20426;-75
2021/06/03 10:53:13;;;;;;;3.33;3.03;;;25.80;54.40;;;;;;5053708;28;20615;-76
2021/06/03 10:55:43;;;;;;;4.20;3.13;;;26.00;55.20;;;;;;5053955;28;21000;-75
2021/06/03 10:58:11;;;;;;;3.93;3.37;;;26.00;54.10;;;;;;5053726;28;20414;-75
2021/06/03 11:00:58;;;;;;;5.00;3.87;;;26.10;54.20;;;;;;5053640;28;20453;-76
2021/06/03 11:03:39;;;;;;;3.63;3.33;;;26.40;54.20;;;;;;5053515;28;20419;-76
2021/06/03 11:06:10;;;;;;;3.27;2.90;;;26.50;53.60;;;;;;5053719;28;20738;-77
2021/06/03 11:08:39;;;;;;;5.47;3.47;;;26.20;54.20;;;;;;5053380;28;20778;-76
2021/06/03 11:11:11;;;;;;;4.80;2.40;;;26.10;53.90;;;;;;5051772;28;20474;-76
2021/06/03 11:13:40;;;;;;;3.30;3.00;;;26.30;53.40;;;;;;5054174;28;20417;-75
2021/06/03 11:16:18;;;;;;;3.67;2.53;;;26.20;54.00;;;;;;5036612;28;20421;-77
2021/06/03 11:18:49;;;;;;;3.37;2.73;;;26.40;53.20;;;;;;5036798;28;20416;-75
2021/06/03 11:21:33;;;;;;;3.40;2.60;;;26.30;55.40;;;;;;5053544;28;20603;-77
2021/06/03 11:24:10;;;;;;;3.57;2.90;;;26.50;54.70;;;;;;5053477;28;20765;-77
2021/06/03 11:26:41;;;;;;;3.80;2.73;;;26.40;53.10;;;;;;5053293;28;20493;-77
2021/06/03 11:29:08;;;;;;;5.43;3.30;;;26.20;53.50;;;;;;5053304;28;20397;-78
2021/06/03 11:31:35;;;;;;;3.90;3.30;;;26.10;52.90;;;;;;5053641;28;20416;-75
2021/06/03 11:34:13;;;;;;;4.30;3.30;;;26.00;54.10;;;;;;5053330;28;20441;-75
2021/06/03 11:36:40;;;;;;;3.50;2.93;;;26.30;53.90;;;;;;5071063;28;20783;-77
2021/06/03 11:39:32;;;;;;;5.33;3.00;;;26.50;52.60;;;;;;5073204;28;20408;-77
2021/06/03 11:42:31;;;;;;;3.03;2.83;;;26.50;53.70;;;;;;5067136;28;20491;-77
2021/06/03 11:45:10;;;;;;;3.13;2.83;;;26.20;52.30;;;;;;5053627;28;20465;-78
2021/06/03 11:47:40;;;;;;;3.10;2.87;;;26.10;53.80;;;;;;5053642;28;20409;-77
2021/06/03 11:50:05;;;;;;;3.30;3.00;;;26.20;53.10;;;;;;5054145;28;20793;-78
2021/06/03 11:52:31;;;;;;;3.23;2.83;;;26.00;53.00;;;;;;5053507;28;20399;-78
2021/06/03 11:55:01;;;;;;;2.87;2.67;;;26.20;54.20;;;;;;5054003;28;20182;-77
2021/06/03 11:57:29;;;;;;;3.83;3.27;;;26.40;54.10;;;;;;5053373;28;20748;-77
2021/06/03 11:59:59;;;;;;;3.17;2.90;;;26.40;53.10;;;;;;5052793;28;20452;-77
2021/06/03 12:02:30;;;;;;;2.83;2.63;;;26.30;53.20;;;;;;5053076;28;20497;-78
2021/06/03 12:05:11;;;;;;;4.57;2.70;;;26.40;53.70;;;;;;5019331;28;20415;-78
2021/06/03 12:07:47;;;;;;;3.00;2.80;;;26.70;53.20;;;;;;5054992;28;20792;-76
2021/06/03 12:10:17;;;;;;;3.60;3.30;;;26.50;53.70;;;;;;5072643;28;20472;-76
2021/06/03 12:12:43;;;;;;;3.10;2.90;;;26.70;52.90;;;;;;5071693;28;20472;-76
2021/06/03 12:15:41;;;;;;;2.93;2.73;;;26.60;52.50;;;;;;5072439;28;20910;-77
2021/06/03 12:18:06;;;;;;;3.13;2.63;;;26.30;52.50;;;;;;5071837;28;20280;-76
2021/06/03 12:20:32;;;;;;;5.80;3.17;;;26.50;52.20;;;;;;5063111;28;21034;-76
2021/06/03 12:23:09;;;;;;;2.80;2.60;;;26.30;52.20;;;;;;5054228;28;20197;-77
2021/06/03 12:25:36;;;;;;;4.60;3.10;;;26.50;52.90;;;;;;5072248;28;20204;-77
2021/06/03 12:28:04;;;;;;;2.90;2.70;;;26.50;51.70;;;;;;5072068;28;20883;-77
2021/06/03 12:30:33;;;;;;;4.40;3.13;;;26.70;52.60;;;;;;5072107;28;20519;-76
2021/06/03 12:33:25;;;;;;;3.27;3.00;;;26.50;52.70;;;;;;5054204;28;20428;-78
2021/06/03 12:36:05;;;;;;;5.67;2.70;;;26.40;52.70;;;;;;5054056;28;20416;-75
2021/06/03 12:38:34;;;;;;;3.13;2.57;;;26.40;51.70;;;;;;5071811;28;20410;-76
2021/06/03 12:41:20;;;;;;;4.63;3.30;;;26.30;50.80;;;;;;5071553;28;20453;-76
2021/06/03 12:43:48;;;;;;;2.90;2.70;;;26.20;51.40;;;;;;5052049;28;20434;-76
2021/06/03 12:46:14;;;;;;;4.00;2.47;;;26.20;52.50;;;;;;5055272;28;20401;-76
2021/06/03 12:48:40;;;;;;;3.30;2.90;;;26.20;51.70;;;;;;5071995;28;20460;-76
2021/06/03 12:51:11;;;;;;;3.27;2.57;;;26.20;51.90;;;;;;5071832;28;20703;-76
2021/06/03 12:53:38;;;;;;;3.33;2.70;;;26.30;52.20;;;;;;5072081;28;20401;-76
2021/06/03 12:56:22;;;;;;;3.30;3.00;;;26.20;51.40;;;;;;5072290;28;20400;-77